sensor_id;sensor_type;location;lat;lon;timestamp;P1;durP1;ratioP1;P2;durP2;ratioP2
52029;SDS011;38043;53.224;6.580;2023-02-19T00:01:17;43.70;;;18.70;;
52029;SDS011;38043;53.224;6.580;2023-02-19T00:03:51;40.40;;;17.02;;
52029;SDS011;38043;53.224;6.580;2023-02-19T00:06:19;38.08;;;16.92;;
52029;SDS011;38043;53.224;6.580;2023-02-19T00:08:46;36.80;;;17.38;;
52029;SDS011;38043;53.224;6.580;2023-02-19T00:11:13;33.97;;;15.20;;
52029;SDS011;38043;53.224;6.580;2023-02-19T00:13:44;45.28;;;16.67;;
52029;SDS011;38043;53.224;6.580;2023-02-19T00:16:12;36.78;;;16.13;;
52029;SDS011;38043;53.224;6.580;2023-02-19T00:18:48;39.28;;;16.73;;
52029;SDS011;38043;53.224;6.580;2023-02-19T00:21:14;34.67;;;16.20;;
52029;SDS011;38043;53.224;6.580;2023-02-19T00:23:40;39.90;;;15.63;;
52029;SDS011;38043;53.224;6.580;2023-02-19T00:26:07;37.33;;;16.67;;
52029;SDS011;38043;53.224;6.580;2023-02-19T00:28:37;32.38;;;15.75;;
52029;SDS011;38043;53.224;6.580;2023-02-19T00:31:06;41.45;;;15.80;;
52029;SDS011;38043;53.224;6.580;2023-02-19T00:33:33;43.58;;;16.20;;
52029;SDS011;38043;53.224;6.580;2023-02-19T00:36:03;44.20;;;16.33;;
52029;SDS011;38043;53.224;6.580;2023-02-19T00:38:30;39.70;;;17.08;;
52029;SDS011;38043;53.224;6.580;2023-02-19T00:40:59;48.15;;;16.20;;
52029;SDS011;38043;53.224;6.580;2023-02-19T00:43:25;44.78;;;17.42;;
52029;SDS011;38043;53.224;6.580;2023-02-19T00:45:51;36.55;;;15.48;;
52029;SDS011;38043;53.224;6.580;2023-02-19T00:48:16;38.42;;;16.75;;
52029;SDS011;38043;53.224;6.580;2023-02-19T00:50:42;34.38;;;15.15;;
52029;SDS011;38043;53.224;6.580;2023-02-19T00:53:08;42.47;;;15.90;;
52029;SDS011;38043;53.224;6.580;2023-02-19T00:55:34;39.40;;;16.45;;
52029;SDS011;38043;53.224;6.580;2023-02-19T00:58:01;38.30;;;16.67;;
52029;SDS011;38043;53.224;6.580;2023-02-19T01:00:27;43.08;;;16.83;;
52029;SDS011;38043;53.224;6.580;2023-02-19T01:02:53;42.05;;;17.00;;
52029;SDS011;38043;53.224;6.580;2023-02-19T01:05:18;43.25;;;16.35;;
52029;SDS011;38043;53.224;6.580;2023-02-19T01:07:44;42.40;;;15.75;;
52029;SDS011;38043;53.224;6.580;2023-02-19T01:10:10;45.22;;;16.88;;
52029;SDS011;38043;53.224;6.580;2023-02-19T01:12:35;53.90;;;16.85;;
52029;SDS011;38043;53.224;6.580;2023-02-19T01:15:01;39.08;;;16.52;;
52029;SDS011;38043;53.224;6.580;2023-02-19T01:17:27;40.25;;;16.17;;
52029;SDS011;38043;53.224;6.580;2023-02-19T01:19:53;45.80;;;16.30;;
52029;SDS011;38043;53.224;6.580;2023-02-19T01:22:18;43.10;;;16.88;;
52029;SDS011;38043;53.224;6.580;2023-02-19T01:24:44;48.65;;;17.23;;
52029;SDS011;38043;53.224;6.580;2023-02-19T01:27:09;46.70;;;16.33;;
52029;SDS011;38043;53.224;6.580;2023-02-19T01:29:35;37.13;;;16.30;;
52029;SDS011;38043;53.224;6.580;2023-02-19T01:32:01;48.10;;;16.73;;
52029;SDS011;38043;53.224;6.580;2023-02-19T01:34:27;10.68;;;5.30;;
52029;SDS011;38043;53.224;6.580;2023-02-19T01:36:57;6.50;;;3.40;;
52029;SDS011;38043;53.224;6.580;2023-02-19T01:39:22;7.13;;;2.90;;
52029;SDS011;38043;53.224;6.580;2023-02-19T01:41:48;7.90;;;3.50;;
52029;SDS011;38043;53.224;6.580;2023-02-19T01:46:40;4.90;;;2.80;;
52029;SDS011;38043;53.224;6.580;2023-02-19T01:49:23;4.85;;;2.95;;
52029;SDS011;38043;53.224;6.580;2023-02-19T01:51:54;4.90;;;2.90;;
52029;SDS011;38043;53.224;6.580;2023-02-19T01:54:24;5.60;;;2.80;;
52029;SDS011;38043;53.224;6.580;2023-02-19T01:56:52;6.57;;;2.72;;
52029;SDS011;38043;53.224;6.580;2023-02-19T01:59:19;4.75;;;2.40;;
52029;SDS011;38043;53.224;6.580;2023-02-19T02:01:45;4.88;;;2.25;;
52029;SDS011;38043;53.224;6.580;2023-02-19T02:04:11;3.72;;;1.90;;
52029;SDS011;38043;53.224;6.580;2023-02-19T02:06:40;3.67;;;2.00;;
52029;SDS011;38043;53.224;6.580;2023-02-19T02:09:17;5.32;;;2.33;;
52029;SDS011;38043;53.224;6.580;2023-02-19T02:12:02;3.50;;;2.20;;
52029;SDS011;38043;53.224;6.580;2023-02-19T02:14:29;3.67;;;1.70;;
52029;SDS011;38043;53.224;6.580;2023-02-19T02:17:19;5.70;;;2.30;;
52029;SDS011;38043;53.224;6.580;2023-02-19T02:31:11;5.50;;;2.67;;
52029;SDS011;38043;53.224;6.580;2023-02-19T02:33:46;5.10;;;2.90;;
52029;SDS011;38043;53.224;6.580;2023-02-19T02:36:28;5.78;;;2.47;;
52029;SDS011;38043;53.224;6.580;2023-02-19T02:41:24;3.85;;;2.50;;
52029;SDS011;38043;53.224;6.580;2023-02-19T02:43:50;7.53;;;3.30;;
52029;SDS011;38043;53.224;6.580;2023-02-19T02:46:20;5.90;;;3.03;;
52029;SDS011;38043;53.224;6.580;2023-02-19T02:48:57;7.28;;;3.65;;
52029;SDS011;38043;53.224;6.580;2023-02-19T02:51:29;7.20;;;3.50;;
52029;SDS011;38043;53.224;6.580;2023-02-19T02:54:01;6.72;;;3.83;;
52029;SDS011;38043;53.224;6.580;2023-02-19T02:56:51;8.95;;;4.43;;
52029;SDS011;38043;53.224;6.580;2023-02-19T02:59:19;11.35;;;4.90;;
52029;SDS011;38043;53.224;6.580;2023-02-19T03:01:56;13.10;;;4.68;;
52029;SDS011;38043;53.224;6.580;2023-02-19T03:05:19;9.20;;;4.45;;
52029;SDS011;38043;53.224;6.580;2023-02-19T03:10:29;9.60;;;4.68;;
52029;SDS011;38043;53.224;6.580;2023-02-19T03:13:03;13.93;;;5.97;;
52029;SDS011;38043;53.224;6.580;2023-02-19T03:15:50;7.95;;;4.35;;
52029;SDS011;38043;53.224;6.580;2023-02-19T03:18:42;9.75;;;4.55;;
52029;SDS011;38043;53.224;6.580;2023-02-19T03:21:30;10.57;;;4.10;;
52029;SDS011;38043;53.224;6.580;2023-02-19T03:26:43;5.50;;;2.67;;
52029;SDS011;38043;53.224;6.580;2023-02-19T03:29:10;5.22;;;2.90;;
52029;SDS011;38043;53.224;6.580;2023-02-19T03:31:54;5.10;;;2.47;;
52029;SDS011;38043;53.224;6.580;2023-02-19T03:34:24;4.82;;;2.30;;
52029;SDS011;38043;53.224;6.580;2023-02-19T03:37:18;6.85;;;2.92;;
52029;SDS011;38043;53.224;6.580;2023-02-19T03:39:49;5.07;;;2.58;;
52029;SDS011;38043;53.224;6.580;2023-02-19T03:42:23;4.50;;;2.90;;
52029;SDS011;38043;53.224;6.580;2023-02-19T03:47:48;5.70;;;3.42;;
52029;SDS011;38043;53.224;6.580;2023-02-19T03:50:23;5.15;;;3.05;;
52029;SDS011;38043;53.224;6.580;2023-02-19T03:58:18;5.57;;;3.35;;
52029;SDS011;38043;53.224;6.580;2023-02-19T04:00:59;6.25;;;3.58;;
52029;SDS011;38043;53.224;6.580;2023-02-19T04:03:36;6.07;;;3.67;;
52029;SDS011;38043;53.224;6.580;2023-02-19T04:06:39;7.50;;;3.60;;
52029;SDS011;38043;53.224;6.580;2023-02-19T04:08:59;6.70;;;3.58;;
52029;SDS011;38043;53.224;6.580;2023-02-19T04:11:28;8.02;;;3.90;;
52029;SDS011;38043;53.224;6.580;2023-02-19T04:13:57;6.10;;;3.20;;
52029;SDS011;38043;53.224;6.580;2023-02-19T04:16:29;6.05;;;3.78;;
52029;SDS011;38043;53.224;6.580;2023-02-19T04:18:58;7.28;;;3.38;;
52029;SDS011;38043;53.224;6.580;2023-02-19T04:21:28;7.05;;;3.63;;
52029;SDS011;38043;53.224;6.580;2023-02-19T04:26:23;9.10;;;4.72;;
52029;SDS011;38043;53.224;6.580;2023-02-19T04:28:49;12.10;;;4.38;;
52029;SDS011;38043;53.224;6.580;2023-02-19T04:31:14;8.80;;;3.83;;
52029;SDS011;38043;53.224;6.580;2023-02-19T04:33:40;11.40;;;4.18;;
52029;SDS011;38043;53.224;6.580;2023-02-19T04:36:06;10.23;;;3.70;;
52029;SDS011;38043;53.224;6.580;2023-02-19T04:38:33;10.27;;;4.15;;
52029;SDS011;38043;53.224;6.580;2023-02-19T04:40:59;9.43;;;4.40;;
52029;SDS011;38043;53.224;6.580;2023-02-19T04:43:24;9.93;;;4.55;;
52029;SDS011;38043;53.224;6.580;2023-02-19T04:45:50;8.75;;;4.22;;
52029;SDS011;38043;53.224;6.580;2023-02-19T04:48:15;10.48;;;5.15;;
52029;SDS011;38043;53.224;6.580;2023-02-19T04:50:41;9.20;;;4.40;;
52029;SDS011;38043;53.224;6.580;2023-02-19T04:53:07;9.90;;;4.43;;
52029;SDS011;38043;53.224;6.580;2023-02-19T04:55:36;7.75;;;4.35;;
52029;SDS011;38043;53.224;6.580;2023-02-19T04:58:03;7.45;;;3.88;;
52029;SDS011;38043;53.224;6.580;2023-02-19T05:00:28;10.90;;;4.38;;
52029;SDS011;38043;53.224;6.580;2023-02-19T05:02:55;5.57;;;3.33;;
52029;SDS011;38043;53.224;6.580;2023-02-19T05:05:20;6.13;;;3.47;;
52029;SDS011;38043;53.224;6.580;2023-02-19T05:07:46;6.13;;;3.15;;
52029;SDS011;38043;53.224;6.580;2023-02-19T05:10:11;5.00;;;2.90;;
52029;SDS011;38043;53.224;6.580;2023-02-19T05:12:37;4.25;;;2.83;;
52029;SDS011;38043;53.224;6.580;2023-02-19T05:15:03;6.20;;;3.15;;
52029;SDS011;38043;53.224;6.580;2023-02-19T05:17:31;5.40;;;2.95;;
52029;SDS011;38043;53.224;6.580;2023-02-19T05:19:57;4.70;;;2.83;;
52029;SDS011;38043;53.224;6.580;2023-02-19T05:22:23;6.72;;;3.40;;
52029;SDS011;38043;53.224;6.580;2023-02-19T05:24:48;3.95;;;2.92;;
52029;SDS011;38043;53.224;6.580;2023-02-19T05:27:14;4.78;;;3.00;;
52029;SDS011;38043;53.224;6.580;2023-02-19T05:29:39;5.97;;;3.10;;
52029;SDS011;38043;53.224;6.580;2023-02-19T05:32:05;3.85;;;2.40;;
52029;SDS011;38043;53.224;6.580;2023-02-19T05:34:31;3.95;;;2.38;;
52029;SDS011;38043;53.224;6.580;2023-02-19T05:36:56;6.43;;;2.53;;
52029;SDS011;38043;53.224;6.580;2023-02-19T05:39:22;9.73;;;2.38;;
52029;SDS011;38043;53.224;6.580;2023-02-19T05:41:47;5.10;;;1.60;;
52029;SDS011;38043;53.224;6.580;2023-02-19T05:44:13;5.10;;;1.65;;
52029;SDS011;38043;53.224;6.580;2023-02-19T05:46:39;2.38;;;1.20;;
52029;SDS011;38043;53.224;6.580;2023-02-19T05:49:04;7.38;;;1.63;;
52029;SDS011;38043;53.224;6.580;2023-02-19T05:51:30;2.45;;;1.20;;
52029;SDS011;38043;53.224;6.580;2023-02-19T05:53:56;2.80;;;1.30;;
52029;SDS011;38043;53.224;6.580;2023-02-19T05:58:50;2.28;;;1.15;;
52029;SDS011;38043;53.224;6.580;2023-02-19T06:01:17;2.90;;;1.30;;
52029;SDS011;38043;53.224;6.580;2023-02-19T06:03:43;2.78;;;0.95;;
52029;SDS011;38043;53.224;6.580;2023-02-19T06:06:12;2.15;;;1.00;;
52029;SDS011;38043;53.224;6.580;2023-02-19T06:08:39;13.18;;;2.28;;
52029;SDS011;38043;53.224;6.580;2023-02-19T06:11:05;6.00;;;1.38;;
52029;SDS011;38043;53.224;6.580;2023-02-19T06:13:33;3.10;;;1.50;;
52029;SDS011;38043;53.224;6.580;2023-02-19T06:16:01;10.30;;;1.40;;
52029;SDS011;38043;53.224;6.580;2023-02-19T06:18:28;6.78;;;1.60;;
52029;SDS011;38043;53.224;6.580;2023-02-19T06:20:53;5.72;;;1.30;;
52029;SDS011;38043;53.224;6.580;2023-02-19T06:23:26;5.38;;;1.45;;
52029;SDS011;38043;53.224;6.580;2023-02-19T06:25:52;5.50;;;1.42;;
52029;SDS011;38043;53.224;6.580;2023-02-19T06:28:17;4.82;;;1.80;;
52029;SDS011;38043;53.224;6.580;2023-02-19T06:30:43;8.93;;;1.85;;
52029;SDS011;38043;53.224;6.580;2023-02-19T06:33:09;6.25;;;2.00;;
52029;SDS011;38043;53.224;6.580;2023-02-19T06:35:35;8.35;;;2.13;;
52029;SDS011;38043;53.224;6.580;2023-02-19T06:38:00;8.02;;;2.47;;
52029;SDS011;38043;53.224;6.580;2023-02-19T06:40:27;7.07;;;1.88;;
52029;SDS011;38043;53.224;6.580;2023-02-19T06:42:53;8.20;;;2.10;;
52029;SDS011;38043;53.224;6.580;2023-02-19T06:45:18;6.05;;;2.28;;
52029;SDS011;38043;53.224;6.580;2023-02-19T06:47:44;8.07;;;1.80;;
52029;SDS011;38043;53.224;6.580;2023-02-19T06:50:09;4.88;;;2.10;;
52029;SDS011;38043;53.224;6.580;2023-02-19T06:52:35;8.15;;;1.90;;
52029;SDS011;38043;53.224;6.580;2023-02-19T06:55:01;6.85;;;2.28;;
52029;SDS011;38043;53.224;6.580;2023-02-19T06:57:26;8.02;;;2.00;;
52029;SDS011;38043;53.224;6.580;2023-02-19T06:59:52;12.52;;;2.83;;
52029;SDS011;38043;53.224;6.580;2023-02-19T07:02:17;5.97;;;1.80;;
52029;SDS011;38043;53.224;6.580;2023-02-19T07:04:43;6.97;;;2.25;;
52029;SDS011;38043;53.224;6.580;2023-02-19T07:07:09;9.50;;;2.20;;
52029;SDS011;38043;53.224;6.580;2023-02-19T07:09:36;4.70;;;2.30;;
52029;SDS011;38043;53.224;6.580;2023-02-19T07:12:02;6.95;;;2.08;;
52029;SDS011;38043;53.224;6.580;2023-02-19T07:14:27;5.78;;;2.35;;
52029;SDS011;38043;53.224;6.580;2023-02-19T07:16:53;4.75;;;2.30;;
52029;SDS011;38043;53.224;6.580;2023-02-19T07:19:19;7.85;;;2.38;;
52029;SDS011;38043;53.224;6.580;2023-02-19T07:21:45;5.15;;;2.08;;
52029;SDS011;38043;53.224;6.580;2023-02-19T07:24:11;9.27;;;2.65;;
52029;SDS011;38043;53.224;6.580;2023-02-19T07:26:36;7.78;;;2.33;;
52029;SDS011;38043;53.224;6.580;2023-02-19T07:29:02;6.03;;;2.15;;
52029;SDS011;38043;53.224;6.580;2023-02-19T07:31:28;6.55;;;2.22;;
52029;SDS011;38043;53.224;6.580;2023-02-19T07:33:54;6.25;;;1.98;;
52029;SDS011;38043;53.224;6.580;2023-02-19T07:36:20;10.02;;;2.40;;
52029;SDS011;38043;53.224;6.580;2023-02-19T07:38:54;7.90;;;2.30;;
52029;SDS011;38043;53.224;6.580;2023-02-19T07:41:20;9.25;;;2.65;;
52029;SDS011;38043;53.224;6.580;2023-02-19T07:43:46;9.23;;;2.50;;
52029;SDS011;38043;53.224;6.580;2023-02-19T07:46:12;7.93;;;2.17;;
52029;SDS011;38043;53.224;6.580;2023-02-19T07:48:38;4.68;;;2.15;;
52029;SDS011;38043;53.224;6.580;2023-02-19T07:51:06;6.93;;;2.10;;
52029;SDS011;38043;53.224;6.580;2023-02-19T07:53:35;5.35;;;1.98;;
52029;SDS011;38043;53.224;6.580;2023-02-19T07:56:04;7.82;;;1.88;;
52029;SDS011;38043;53.224;6.580;2023-02-19T07:58:31;6.55;;;2.08;;
52029;SDS011;38043;53.224;6.580;2023-02-19T08:01:05;6.18;;;2.00;;
52029;SDS011;38043;53.224;6.580;2023-02-19T08:03:35;4.53;;;1.58;;
52029;SDS011;38043;53.224;6.580;2023-02-19T08:06:02;6.90;;;2.03;;
52029;SDS011;38043;53.224;6.580;2023-02-19T08:08:27;5.38;;;1.80;;
52029;SDS011;38043;53.224;6.580;2023-02-19T08:10:53;3.13;;;1.25;;
52029;SDS011;38043;53.224;6.580;2023-02-19T08:13:37;6.35;;;1.60;;
52029;SDS011;38043;53.224;6.580;2023-02-19T08:18:30;8.00;;;1.52;;
52029;SDS011;38043;53.224;6.580;2023-02-19T08:20:57;3.65;;;1.40;;
52029;SDS011;38043;53.224;6.580;2023-02-19T08:23:23;4.22;;;1.50;;
52029;SDS011;38043;53.224;6.580;2023-02-19T08:25:50;5.32;;;1.40;;
52029;SDS011;38043;53.224;6.580;2023-02-19T08:28:17;8.38;;;1.48;;
52029;SDS011;38043;53.224;6.580;2023-02-19T08:30:43;4.90;;;1.40;;
52029;SDS011;38043;53.224;6.580;2023-02-19T08:33:12;5.50;;;1.30;;
52029;SDS011;38043;53.224;6.580;2023-02-19T08:35:39;8.05;;;1.70;;
52029;SDS011;38043;53.224;6.580;2023-02-19T08:38:06;5.65;;;1.50;;
52029;SDS011;38043;53.224;6.580;2023-02-19T08:40:32;3.33;;;1.30;;
52029;SDS011;38043;53.224;6.580;2023-02-19T08:43:02;4.32;;;1.45;;
52029;SDS011;38043;53.224;6.580;2023-02-19T08:45:36;8.30;;;1.60;;
52029;SDS011;38043;53.224;6.580;2023-02-19T08:48:02;5.80;;;1.77;;
52029;SDS011;38043;53.224;6.580;2023-02-19T08:50:29;5.03;;;1.70;;
52029;SDS011;38043;53.224;6.580;2023-02-19T08:52:55;6.97;;;1.60;;
52029;SDS011;38043;53.224;6.580;2023-02-19T08:55:22;7.07;;;1.65;;
52029;SDS011;38043;53.224;6.580;2023-02-19T08:57:48;6.63;;;1.50;;
52029;SDS011;38043;53.224;6.580;2023-02-19T09:00:14;8.98;;;1.75;;
52029;SDS011;38043;53.224;6.580;2023-02-19T09:02:40;5.45;;;1.88;;
52029;SDS011;38043;53.224;6.580;2023-02-19T09:05:06;9.77;;;1.83;;
52029;SDS011;38043;53.224;6.580;2023-02-19T09:07:31;4.28;;;1.50;;
52029;SDS011;38043;53.224;6.580;2023-02-19T09:09:57;6.13;;;1.67;;
52029;SDS011;38043;53.224;6.580;2023-02-19T09:12:23;5.07;;;1.65;;
52029;SDS011;38043;53.224;6.580;2023-02-19T09:14:49;5.53;;;1.70;;
52029;SDS011;38043;53.224;6.580;2023-02-19T09:17:15;10.45;;;1.70;;
52029;SDS011;38043;53.224;6.580;2023-02-19T09:19:40;7.60;;;1.60;;
52029;SDS011;38043;53.224;6.580;2023-02-19T09:22:07;7.85;;;1.45;;
52029;SDS011;38043;53.224;6.580;2023-02-19T09:24:33;4.57;;;1.55;;
52029;SDS011;38043;53.224;6.580;2023-02-19T09:26:58;6.25;;;1.67;;
52029;SDS011;38043;53.224;6.580;2023-02-19T09:29:24;8.05;;;1.90;;
52029;SDS011;38043;53.224;6.580;2023-02-19T09:31:54;6.72;;;1.50;;
52029;SDS011;38043;53.224;6.580;2023-02-19T09:34:22;5.03;;;1.60;;
52029;SDS011;38043;53.224;6.580;2023-02-19T09:36:48;4.40;;;1.90;;
52029;SDS011;38043;53.224;6.580;2023-02-19T09:39:14;7.50;;;2.28;;
52029;SDS011;38043;53.224;6.580;2023-02-19T09:41:47;7.72;;;2.38;;
52029;SDS011;38043;53.224;6.580;2023-02-19T09:44:29;7.45;;;1.88;;
52029;SDS011;38043;53.224;6.580;2023-02-19T09:47:00;5.00;;;1.58;;
52029;SDS011;38043;53.224;6.580;2023-02-19T09:49:38;4.10;;;1.55;;
52029;SDS011;38043;53.224;6.580;2023-02-19T09:52:06;8.18;;;2.30;;
52029;SDS011;38043;53.224;6.580;2023-02-19T09:54:35;6.82;;;1.63;;
52029;SDS011;38043;53.224;6.580;2023-02-19T09:57:02;4.78;;;1.67;;
52029;SDS011;38043;53.224;6.580;2023-02-19T09:59:50;6.18;;;1.73;;
52029;SDS011;38043;53.224;6.580;2023-02-19T10:02:22;7.13;;;1.63;;
52029;SDS011;38043;53.224;6.580;2023-02-19T10:04:49;5.07;;;2.10;;
52029;SDS011;38043;53.224;6.580;2023-02-19T10:07:24;5.32;;;1.50;;
52029;SDS011;38043;53.224;6.580;2023-02-19T10:12:30;3.50;;;1.50;;
52029;SDS011;38043;53.224;6.580;2023-02-19T10:15:00;3.55;;;1.30;;
52029;SDS011;38043;53.224;6.580;2023-02-19T10:20:01;2.10;;;0.82;;
52029;SDS011;38043;53.224;6.580;2023-02-19T10:22:29;6.97;;;1.52;;
52029;SDS011;38043;53.224;6.580;2023-02-19T10:24:59;7.13;;;1.42;;
52029;SDS011;38043;53.224;6.580;2023-02-19T10:27:27;3.65;;;1.10;;
52029;SDS011;38043;53.224;6.580;2023-02-19T10:29:55;3.67;;;1.27;;
52029;SDS011;38043;53.224;6.580;2023-02-19T10:32:22;4.07;;;1.13;;
52029;SDS011;38043;53.224;6.580;2023-02-19T10:35:08;4.00;;;1.30;;
52029;SDS011;38043;53.224;6.580;2023-02-19T10:37:35;6.32;;;1.25;;
52029;SDS011;38043;53.224;6.580;2023-02-19T10:40:26;3.72;;;1.20;;
52029;SDS011;38043;53.224;6.580;2023-02-19T10:42:54;7.03;;;1.48;;
52029;SDS011;38043;53.224;6.580;2023-02-19T10:45:44;3.88;;;1.40;;
52029;SDS011;38043;53.224;6.580;2023-02-19T10:48:22;6.05;;;1.63;;
52029;SDS011;38043;53.224;6.580;2023-02-19T10:50:52;5.10;;;1.63;;
52029;SDS011;38043;53.224;6.580;2023-02-19T10:53:34;7.63;;;1.40;;
52029;SDS011;38043;53.224;6.580;2023-02-19T10:56:15;5.25;;;1.52;;
52029;SDS011;38043;53.224;6.580;2023-02-19T10:58:48;5.53;;;1.80;;
52029;SDS011;38043;53.224;6.580;2023-02-19T11:01:19;5.63;;;1.80;;
52029;SDS011;38043;53.224;6.580;2023-02-19T11:03:45;6.82;;;1.60;;
52029;SDS011;38043;53.224;6.580;2023-02-19T11:06:14;5.20;;;1.60;;
52029;SDS011;38043;53.224;6.580;2023-02-19T11:13:59;6.38;;;1.55;;
52029;SDS011;38043;53.224;6.580;2023-02-19T11:16:39;9.70;;;2.13;;
52029;SDS011;38043;53.224;6.580;2023-02-19T11:24:51;4.15;;;1.45;;
52029;SDS011;38043;53.224;6.580;2023-02-19T11:27:19;8.43;;;1.60;;
52029;SDS011;38043;53.224;6.580;2023-02-19T11:29:46;3.72;;;1.33;;
52029;SDS011;38043;53.224;6.580;2023-02-19T11:34:45;7.45;;;1.27;;
52029;SDS011;38043;53.224;6.580;2023-02-19T11:37:12;3.22;;;1.27;;
52029;SDS011;38043;53.224;6.580;2023-02-19T11:39:40;3.38;;;1.42;;
52029;SDS011;38043;53.224;6.580;2023-02-19T11:56:01;6.05;;;1.15;;
52029;SDS011;38043;53.224;6.580;2023-02-19T12:10:10;5.35;;;1.35;;
52029;SDS011;38043;53.224;6.580;2023-02-19T12:18:25;2.92;;;0.88;;
52029;SDS011;38043;53.224;6.580;2023-02-19T12:32:36;4.50;;;1.13;;
52029;SDS011;38043;53.224;6.580;2023-02-19T12:38:22;4.15;;;1.30;;
52029;SDS011;38043;53.224;6.580;2023-02-19T12:41:20;2.83;;;0.93;;
52029;SDS011;38043;53.224;6.580;2023-02-19T12:43:57;6.28;;;1.20;;
52029;SDS011;38043;53.224;6.580;2023-02-19T12:46:50;2.58;;;0.90;;
52029;SDS011;38043;53.224;6.580;2023-02-19T12:51:45;5.40;;;1.33;;
52029;SDS011;38043;53.224;6.580;2023-02-19T12:54:40;1.67;;;0.70;;
52029;SDS011;38043;53.224;6.580;2023-02-19T12:57:21;3.55;;;1.10;;
52029;SDS011;38043;53.224;6.580;2023-02-19T13:08:17;5.03;;;1.10;;
52029;SDS011;38043;53.224;6.580;2023-02-19T13:10:58;4.15;;;1.27;;
52029;SDS011;38043;53.224;6.580;2023-02-19T13:13:33;4.25;;;0.98;;
52029;SDS011;38043;53.224;6.580;2023-02-19T13:16:06;7.95;;;1.30;;
52029;SDS011;38043;53.224;6.580;2023-02-19T13:18:45;4.35;;;0.95;;
52029;SDS011;38043;53.224;6.580;2023-02-19T13:21:23;8.52;;;1.23;;
52029;SDS011;38043;53.224;6.580;2023-02-19T13:24:11;2.63;;;1.17;;
52029;SDS011;38043;53.224;6.580;2023-02-19T13:26:47;5.07;;;1.08;;
52029;SDS011;38043;53.224;6.580;2023-02-19T13:29:24;4.22;;;1.00;;
52029;SDS011;38043;53.224;6.580;2023-02-19T13:34:50;7.97;;;1.40;;
52029;SDS011;38043;53.224;6.580;2023-02-19T13:37:36;6.05;;;1.42;;
52029;SDS011;38043;53.224;6.580;2023-02-19T13:40:04;6.72;;;1.40;;
52029;SDS011;38043;53.224;6.580;2023-02-19T13:42:46;7.70;;;1.40;;
52029;SDS011;38043;53.224;6.580;2023-02-19T13:45:23;10.13;;;1.92;;
52029;SDS011;38043;53.224;6.580;2023-02-19T13:50:26;8.43;;;1.70;;
52029;SDS011;38043;53.224;6.580;2023-02-19T13:52:57;6.70;;;1.45;;
52029;SDS011;38043;53.224;6.580;2023-02-19T14:01:07;7.25;;;1.42;;
52029;SDS011;38043;53.224;6.580;2023-02-19T14:03:52;6.00;;;1.40;;
52029;SDS011;38043;53.224;6.580;2023-02-19T14:06:51;6.18;;;1.58;;
52029;SDS011;38043;53.224;6.580;2023-02-19T14:14:52;6.65;;;1.83;;
52029;SDS011;38043;53.224;6.580;2023-02-19T14:20:00;11.35;;;1.60;;
52029;SDS011;38043;53.224;6.580;2023-02-19T14:30:52;6.28;;;1.45;;
52029;SDS011;38043;53.224;6.580;2023-02-19T14:33:24;6.22;;;1.42;;
52029;SDS011;38043;53.224;6.580;2023-02-19T14:35:59;5.80;;;1.40;;
52029;SDS011;38043;53.224;6.580;2023-02-19T14:38:48;7.93;;;1.88;;
52029;SDS011;38043;53.224;6.580;2023-02-19T14:41:17;8.48;;;1.58;;
52029;SDS011;38043;53.224;6.580;2023-02-19T14:43:44;9.80;;;2.03;;
52029;SDS011;38043;53.224;6.580;2023-02-19T14:46:16;9.07;;;1.67;;
52029;SDS011;38043;53.224;6.580;2023-02-19T14:48:53;8.40;;;1.67;;
52029;SDS011;38043;53.224;6.580;2023-02-19T14:54:00;5.38;;;1.98;;
52029;SDS011;38043;53.224;6.580;2023-02-19T14:56:35;6.50;;;1.60;;
52029;SDS011;38043;53.224;6.580;2023-02-19T14:59:34;5.40;;;1.45;;
52029;SDS011;38043;53.224;6.580;2023-02-19T15:01:54;7.05;;;1.83;;
52029;SDS011;38043;53.224;6.580;2023-02-19T15:04:29;12.82;;;2.20;;
52029;SDS011;38043;53.224;6.580;2023-02-19T15:06:59;10.13;;;2.10;;
52029;SDS011;38043;53.224;6.580;2023-02-19T15:09:38;7.45;;;1.90;;
52029;SDS011;38043;53.224;6.580;2023-02-19T15:12:13;12.20;;;1.92;;
52029;SDS011;38043;53.224;6.580;2023-02-19T15:14:44;6.63;;;1.65;;
52029;SDS011;38043;53.224;6.580;2023-02-19T15:17:12;6.28;;;1.55;;
52029;SDS011;38043;53.224;6.580;2023-02-19T15:19:44;7.63;;;2.05;;
52029;SDS011;38043;53.224;6.580;2023-02-19T15:22:20;8.15;;;1.70;;
52029;SDS011;38043;53.224;6.580;2023-02-19T15:24:48;8.75;;;1.65;;
52029;SDS011;38043;53.224;6.580;2023-02-19T15:27:15;13.55;;;1.60;;
52029;SDS011;38043;53.224;6.580;2023-02-19T15:29:48;7.70;;;1.42;;
52029;SDS011;38043;53.224;6.580;2023-02-19T15:32:19;8.50;;;1.40;;
52029;SDS011;38043;53.224;6.580;2023-02-19T15:34:56;5.70;;;1.50;;
52029;SDS011;38043;53.224;6.580;2023-02-19T15:37:24;6.13;;;1.88;;
52029;SDS011;38043;53.224;6.580;2023-02-19T15:39:57;17.50;;;2.10;;
52029;SDS011;38043;53.224;6.580;2023-02-19T15:42:28;5.28;;;1.42;;
52029;SDS011;38043;53.224;6.580;2023-02-19T15:50:41;11.32;;;1.67;;
52029;SDS011;38043;53.224;6.580;2023-02-19T15:53:20;7.88;;;1.45;;
52029;SDS011;38043;53.224;6.580;2023-02-19T15:58:52;5.38;;;1.65;;
52029;SDS011;38043;53.224;6.580;2023-02-19T16:01:25;10.05;;;1.90;;
52029;SDS011;38043;53.224;6.580;2023-02-19T16:03:53;5.53;;;1.75;;
52029;SDS011;38043;53.224;6.580;2023-02-19T16:06:19;9.65;;;1.90;;
52029;SDS011;38043;53.224;6.580;2023-02-19T16:14:20;7.85;;;1.90;;
52029;SDS011;38043;53.224;6.580;2023-02-19T16:16:54;7.28;;;1.42;;
52029;SDS011;38043;53.224;6.580;2023-02-19T16:19:26;7.43;;;1.52;;
52029;SDS011;38043;53.224;6.580;2023-02-19T16:21:54;7.18;;;1.70;;
52029;SDS011;38043;53.224;6.580;2023-02-19T16:26:52;9.00;;;2.35;;
52029;SDS011;38043;53.224;6.580;2023-02-19T16:29:28;6.45;;;1.55;;
52029;SDS011;38043;53.224;6.580;2023-02-19T16:31:59;9.25;;;2.05;;
52029;SDS011;38043;53.224;6.580;2023-02-19T16:42:39;7.47;;;1.90;;
52029;SDS011;38043;53.224;6.580;2023-02-19T16:45:30;6.88;;;2.00;;
52029;SDS011;38043;53.224;6.580;2023-02-19T16:47:56;9.40;;;1.77;;
52029;SDS011;38043;53.224;6.580;2023-02-19T16:50:23;5.78;;;1.42;;
52029;SDS011;38043;53.224;6.580;2023-02-19T16:52:51;10.43;;;1.70;;
52029;SDS011;38043;53.224;6.580;2023-02-19T16:55:24;8.80;;;2.03;;
52029;SDS011;38043;53.224;6.580;2023-02-19T16:57:50;6.78;;;1.52;;
52029;SDS011;38043;53.224;6.580;2023-02-19T17:00:17;7.13;;;1.60;;
52029;SDS011;38043;53.224;6.580;2023-02-19T17:02:47;10.90;;;2.50;;
52029;SDS011;38043;53.224;6.580;2023-02-19T17:05:18;7.20;;;1.75;;
52029;SDS011;38043;53.224;6.580;2023-02-19T17:07:45;7.63;;;2.10;;
52029;SDS011;38043;53.224;6.580;2023-02-19T17:10:15;7.10;;;1.45;;
52029;SDS011;38043;53.224;6.580;2023-02-19T17:12:47;7.25;;;2.03;;
52029;SDS011;38043;53.224;6.580;2023-02-19T17:15:13;9.80;;;2.35;;
52029;SDS011;38043;53.224;6.580;2023-02-19T17:17:39;7.50;;;1.70;;
52029;SDS011;38043;53.224;6.580;2023-02-19T17:20:16;12.07;;;3.10;;
52029;SDS011;38043;53.224;6.580;2023-02-19T17:22:46;6.22;;;1.92;;
52029;SDS011;38043;53.224;6.580;2023-02-19T17:25:11;7.28;;;2.15;;
52029;SDS011;38043;53.224;6.580;2023-02-19T17:27:37;9.63;;;2.40;;
52029;SDS011;38043;53.224;6.580;2023-02-19T17:30:05;8.93;;;2.00;;
52029;SDS011;38043;53.224;6.580;2023-02-19T17:32:36;9.02;;;2.40;;
52029;SDS011;38043;53.224;6.580;2023-02-19T17:35:02;9.82;;;1.80;;
52029;SDS011;38043;53.224;6.580;2023-02-19T17:37:27;7.00;;;2.15;;
52029;SDS011;38043;53.224;6.580;2023-02-19T17:39:53;5.05;;;1.75;;
52029;SDS011;38043;53.224;6.580;2023-02-19T17:42:19;8.80;;;2.30;;
52029;SDS011;38043;53.224;6.580;2023-02-19T17:44:44;5.90;;;1.80;;
52029;SDS011;38043;53.224;6.580;2023-02-19T17:47:11;17.65;;;2.88;;
52029;SDS011;38043;53.224;6.580;2023-02-19T17:49:36;7.65;;;1.95;;